Time;durP1;ratioP1;P1;durP2;ratioP2;P2;SDS_P1;SDS_P2;PMS_P1;PMS_P2;Temp;Humidity;BMP_temperature;BMP_pressure;BME280_temperature;BME280_humidity;BME280_pressure;Samples;Min_cycle;Max_cycle;Signal;HPM_P1;HPM_P2
2021/04/09 00:02:37;;;;;;;43.30;21.23;;;;;;;1.17;67.11;99615.30;2217507;80;21443;-77
2021/04/09 00:05:40;;;;;;;41.43;19.83;;;;;;;1.00;67.42;99610.42;2217732;80;21138;-77
2021/04/09 00:08:41;;;;;;;42.87;20.57;;;;;;;0.87;67.85;99619.05;2217431;80;21241;-77
2021/04/09 00:11:42;;;;;;;42.30;18.03;;;;;;;0.74;68.09;99620.73;2217860;80;21403;-77
2021/04/09 00:14:43;;;;;;;46.70;19.83;;;;;;;0.64;68.39;99618.88;2217437;80;21549;-77
2021/04/09 00:17:44;;;;;;;35.57;17.23;;;;;;;0.58;68.82;99623.62;2217596;80;21161;-77
2021/04/09 00:20:45;;;;;;;42.23;18.37;;;;;;;0.52;68.89;99628.37;2217313;80;21129;-77
2021/04/09 00:23:46;;;;;;;48.00;21.13;;;;;;;0.45;69.04;99630.06;2217287;80;21275;-77
2021/04/09 00:26:47;;;;;;;46.67;22.17;;;;;;;0.39;69.10;99632.24;2217341;80;21248;-77
2021/04/09 00:29:49;;;;;;;46.40;20.63;;;;;;;0.40;69.28;99633.13;2217563;80;21411;-77
2021/04/09 00:32:50;;;;;;;53.20;22.03;;;;;;;0.36;69.51;99632.05;2217985;80;21360;-77
2021/04/09 00:35:51;;;;;;;48.43;21.00;;;;;;;0.29;69.59;99635.90;2217597;80;21126;-76
2021/04/09 00:38:52;;;;;;;56.07;24.43;;;;;;;0.25;69.80;99639.45;2217320;80;21530;-76
2021/04/09 00:41:53;;;;;;;55.60;23.40;;;;;;;0.19;69.82;99644.19;2217257;80;21439;-76
2021/04/09 00:44:54;;;;;;;52.70;24.53;;;;;;;0.16;69.88;99637.58;2217315;80;21415;-78
2021/04/09 00:47:55;;;;;;;61.37;25.33;;;;;;;0.12;69.97;99637.77;2217309;80;21252;-77
2021/04/09 00:50:56;;;;;;;57.93;25.27;;;;;;;0.09;69.93;99635.40;2217253;80;21133;-77
2021/04/09 00:53:57;;;;;;;59.03;26.23;;;;;;;0.08;70.03;99628.48;2212162;80;21282;-76
2021/04/09 00:56:58;;;;;;;57.90;25.17;;;;;;;0.08;70.12;99626.80;2210705;80;21103;-77
2021/04/09 00:59:59;;;;;;;61.70;26.07;;;;;;;0.08;70.23;99634.91;2210408;80;21094;-77
2021/04/09 01:03:00;;;;;;;59.03;26.60;;;;;;;0.10;70.28;99634.61;2210105;80;21293;-77
2021/04/09 01:06:01;;;;;;;56.43;25.57;;;;;;;0.07;70.36;99634.41;2210275;80;21285;-77
2021/04/09 01:09:02;;;;;;;68.03;28.77;;;;;;;0.07;70.42;99634.41;2210102;80;21252;-77
2021/04/09 01:12:03;;;;;;;61.67;26.97;;;;;;;0.06;70.39;99630.95;2210099;80;21248;-77
2021/04/09 01:15:04;;;;;;;26.57;12.90;;;;;;;0.04;70.40;99632.53;2210206;80;21114;-78
2021/04/09 01:18:05;;;;;;;56.30;27.77;;;;;;;0.23;79.21;99635.90;2210187;81;21118;-77
2021/04/09 01:21:06;;;;;;;63.47;26.13;;;;;;;1.65;72.43;99619.92;2210219;80;21265;-77
2021/04/09 01:24:07;;;;;;;60.97;27.60;;;;;;;1.40;69.59;99624.41;2210100;80;21126;-76
2021/04/09 01:27:08;;;;;;;48.67;23.00;;;;;;;1.01;69.04;99630.19;2210116;80;21261;-77
2021/04/09 01:30:09;;;;;;;48.00;22.40;;;;;;;0.74;68.97;99631.02;2210135;80;21292;-77
2021/04/09 01:33:11;;;;;;;54.07;23.30;;;;;;;0.55;69.23;99636.28;2210484;81;21134;-77
2021/04/09 01:36:12;;;;;;;53.67;24.77;;;;;;;0.41;69.41;99629.77;2210240;80;21275;-77
2021/04/09 01:39:13;;;;;;;53.53;23.70;;;;;;;0.31;69.63;99629.58;2210250;80;21150;-78
2021/04/09 01:42:14;;;;;;;59.10;25.80;;;;;;;0.24;69.78;99626.13;2210249;81;21550;-77
2021/04/09 01:45:15;;;;;;;59.77;26.37;;;;;;;0.18;69.99;99632.14;2210328;80;21095;-77
2021/04/09 01:48:16;;;;;;;59.33;26.17;;;;;;;0.14;70.03;99627.20;2210288;80;21130;-77
2021/04/09 01:51:19;;;;;;;51.40;23.90;;;;;;;0.11;70.12;99623.16;2210183;80;21146;-77
2021/04/09 01:54:20;;;;;;;55.00;24.63;;;;;;;0.08;70.23;99624.23;2209973;80;21170;-77
2021/04/09 01:57:21;;;;;;;54.70;25.57;;;;;;;0.04;70.17;99622.66;2210072;80;21261;-77
2021/04/09 02:00:22;;;;;;;55.93;26.40;;;;;;;0.02;70.33;99624.23;2210124;80;21145;-78
2021/04/09 02:03:23;;;;;;;59.30;26.40;;;;;;;-0.03;70.30;99619.66;2210018;80;21574;-77
2021/04/09 02:06:24;;;;;;;68.33;32.53;;;;;;;-0.07;70.34;99622.81;2210600;80;21173;-78
2021/04/09 02:09:25;;;;;;;60.70;27.27;;;;;;;-0.08;70.45;99618.86;2210103;80;21522;-77
2021/04/09 02:12:26;;;;;;;63.73;27.87;;;;;;;-0.09;70.51;99615.41;2210357;80;21288;-77
2021/04/09 02:15:27;;;;;;;62.97;28.23;;;;;;;-0.10;70.52;99614.91;2210036;80;21133;-76
2021/04/09 02:18:28;;;;;;;62.30;28.67;;;;;;;-0.13;70.52;99620.23;2210263;80;21267;-76
2021/04/09 02:21:30;;;;;;;69.80;30.67;;;;;;;-0.15;70.62;99614.11;2210152;80;21161;-78
2021/04/09 02:24:31;;;;;;;69.17;30.43;;;;;;;-0.17;70.69;99613.13;2210054;80;21252;-76
2021/04/09 02:27:32;;;;;;;67.70;31.43;;;;;;;-0.18;70.87;99625.45;2210336;81;21152;-77
2021/04/09 02:30:33;;;;;;;79.17;33.77;;;;;;;-0.21;71.01;99618.84;2210116;80;21133;-78
2021/04/09 02:33:34;;;;;;;77.60;34.77;;;;;;;-0.21;71.07;99621.41;2210006;80;21256;-77
2021/04/09 02:36:35;;;;;;;84.33;36.20;;;;;;;-0.23;71.12;99614.00;2210134;80;21178;-77
2021/04/09 02:39:36;;;;;;;85.03;40.13;;;;;;;-0.26;71.21;99619.82;2210092;80;21272;-77
2021/04/09 02:42:37;;;;;;;81.53;35.20;;;;;;;-0.26;71.41;99618.53;2210032;80;21174;-77
2021/04/09 02:45:38;;;;;;;62.07;26.57;;;;;;;0.24;81.89;99609.03;2210273;81;21261;-78
2021/04/09 02:48:39;;;;;;;86.23;39.50;;;;;;;2.11;84.21;99604.59;2210077;80;21260;-77
2021/04/09 02:51:40;;;;;;;88.03;39.00;;;;;;;4.39;71.08;99593.52;2210148;80;21130;-77
2021/04/09 02:54:42;;;;;;;96.33;43.00;;;;;;;3.39;66.46;99602.61;2215924;80;21126;-77
2021/04/09 02:57:43;;;;;;;85.20;38.53;;;;;;;2.47;66.28;99600.62;2217727;80;21412;-76
2021/04/09 03:00:44;;;;;;;93.30;40.47;;;;;;;1.80;66.62;99604.13;2217224;80;21142;-77
2021/04/09 03:03:45;;;;;;;90.80;41.93;;;;;;;1.34;67.21;99604.75;2217284;80;21587;-77
2021/04/09 03:06:46;;;;;;;90.13;40.80;;;;;;;0.97;67.61;99601.23;2217121;80;21264;-77
2021/04/09 03:09:47;;;;;;;99.97;41.57;;;;;;;0.68;68.08;99605.82;2217594;80;21118;-77
2021/04/09 03:12:48;;;;;;;100.80;42.27;;;;;;;0.46;68.37;99604.87;2217276;80;21149;-77
2021/04/09 03:15:49;;;;;;;95.93;40.97;;;;;;;0.25;68.55;99609.53;2217385;80;21126;-76
2021/04/09 03:18:50;;;;;;;87.57;40.97;;;;;;;0.10;69.04;99611.50;2217265;80;21256;-77
2021/04/09 03:21:51;;;;;;;87.27;39.47;;;;;;;0.00;69.35;99613.87;2217281;80;21287;-77
2021/04/09 03:24:52;;;;;;;84.53;40.83;;;;;;;-0.11;69.61;99614.81;2217346;80;21118;-77
2021/04/09 03:27:53;;;;;;;85.47;40.60;;;;;;;-0.20;69.72;99616.77;2217463;80;21265;-77
2021/04/09 03:30:54;;;;;;;80.43;38.37;;;;;;;-0.25;70.03;99615.58;2217439;80;21408;-77
2021/04/09 03:33:55;;;;;;;96.80;40.43;;;;;;;-0.28;70.27;99612.41;2217794;80;21136;-77
2021/04/09 03:36:56;;;;;;;76.70;34.50;;;;;;;-0.30;70.38;99603.73;2217335;80;21279;-76
2021/04/09 03:39:57;;;;;;;91.03;40.43;;;;;;;-0.27;70.54;99607.78;2217436;80;21531;-78
2021/04/09 03:42:58;;;;;;;70.97;35.47;;;;;;;-0.29;70.43;99603.33;2217671;80;21166;-77
2021/04/09 03:45:59;;;;;;;83.57;38.13;;;;;;;-0.32;70.54;99602.73;2217395;80;21260;-78
2021/04/09 03:49:00;;;;;;;78.37;35.63;;;;;;;-0.33;70.69;99598.00;2217415;80;21514;-77
2021/04/09 03:52:01;;;;;;;77.17;34.57;;;;;;;-0.30;70.68;99605.41;2217507;80;21274;-77
2021/04/09 03:55:02;;;;;;;86.27;36.17;;;;;;;-0.31;70.52;99594.25;2211299;80;21285;-77
2021/04/09 03:58:03;;;;;;;70.97;36.10;;;;;;;-0.29;70.71;99597.81;2210298;80;21110;-77
2021/04/09 04:01:04;;;;;;;67.83;34.60;;;;;;;-0.26;70.56;99598.02;2210130;80;21249;-76
2021/04/09 04:04:05;;;;;;;73.70;35.40;;;;;;;-0.26;70.46;99600.58;2210144;80;21268;-77
2021/04/09 04:07:06;;;;;;;69.63;34.17;;;;;;;-0.28;70.52;99595.73;2209396;80;21444;-77
2021/04/09 04:10:08;;;;;;;69.57;31.97;;;;;;;-0.24;70.41;99595.55;2209997;80;21400;-77
2021/04/09 04:13:09;;;;;;;73.40;33.37;;;;;;;-0.23;70.32;99598.22;2210676;80;21141;-77
2021/04/09 04:16:10;;;;;;;81.80;36.50;;;;;;;-0.19;70.22;99593.78;2209906;80;21140;-77
2021/04/09 04:19:12;;;;;;;74.37;34.30;;;;;;;-0.12;70.26;99594.67;2209171;80;21250;-77
2021/04/09 04:22:14;;;;;;;77.70;39.17;;;;;;;-0.07;70.00;99598.42;2209234;81;21288;-76
2021/04/09 04:25:15;;;;;;;139.30;70.43;;;;;;;-0.05;69.90;99595.56;2209180;80;21134;-77
2021/04/09 04:28:16;;;;;;;113.03;59.37;;;;;;;0.00;69.91;99592.05;2210314;80;21396;-77
2021/04/09 04:31:17;;;;;;;128.43;48.07;;;;;;;0.06;69.74;99591.16;2210191;80;21157;-77
2021/04/09 04:34:18;;;;;;;85.63;41.83;;;;;;;0.11;69.58;99588.89;2209906;80;21270;-77
2021/04/09 04:37:19;;;;;;;87.27;37.70;;;;;;;0.17;69.56;99595.70;2210055;80;21190;-76
2021/04/09 04:40:20;;;;;;;87.73;38.67;;;;;;;0.23;69.48;99587.11;2210057;81;21261;-77
2021/04/09 04:43:21;;;;;;;69.37;34.53;;;;;;;0.33;69.42;99584.34;2210184;80;21289;-76
2021/04/09 04:46:22;;;;;;;106.03;38.67;;;;;;;0.43;69.32;99589.27;2210369;80;21153;-77
2021/04/09 04:49:23;;;;;;;100.93;41.13;;;;;;;0.56;69.11;99584.50;2210242;80;21130;-78
2021/04/09 04:52:24;;;;;;;101.07;42.53;;;;;;;0.69;69.06;99590.00;2210672;80;21400;-80
2021/04/09 04:55:25;;;;;;;96.33;41.73;;;;;;;0.88;68.93;99587.81;2216481;80;21276;-78
2021/04/09 04:58:27;;;;;;;97.47;44.47;;;;;;;1.08;68.51;99595.06;2217276;80;21368;-80
2021/04/09 05:01:28;;;;;;;100.50;42.77;;;;;;;1.27;68.34;99590.23;2217096;80;21251;-79
2021/04/09 05:04:29;;;;;;;80.53;37.90;;;;;;;1.45;67.84;99584.41;2218397;80;21252;-80
2021/04/09 05:07:30;;;;;;;85.23;39.50;;;;;;;1.64;67.57;99585.97;2218112;80;21106;-81
2021/04/09 05:10:31;;;;;;;74.10;34.27;;;;;;;1.80;67.38;99583.53;2217901;80;21443;-80
2021/04/09 05:13:32;;;;;;;54.27;25.77;;;;;;;1.99;66.95;99586.76;2218345;80;21137;-80
2021/04/09 05:16:33;;;;;;;59.47;24.77;;;;;;;2.13;65.78;99586.25;2218511;80;21141;-80
2021/04/09 05:19:34;;;;;;;57.97;25.43;;;;;;;2.27;65.74;99582.77;2217839;80;21436;-81
2021/04/09 05:22:35;;;;;;;44.43;22.97;;;;;;;2.39;65.13;99582.16;2217765;80;21177;-80
2021/04/09 05:25:36;;;;;;;48.57;23.13;;;;;;;2.54;64.77;99585.58;2217992;80;21141;-79
2021/04/09 05:28:37;;;;;;;37.30;19.80;;;;;;;2.63;63.87;99586.92;2216845;80;21546;-78
2021/04/09 05:31:38;;;;;;;33.07;19.60;;;;;;;2.72;63.16;99583.55;2216547;80;21145;-79
2021/04/09 05:34:39;;;;;;;37.50;18.37;;;;;;;2.84;62.60;99585.51;2216849;80;21256;-79
2021/04/09 05:37:40;;;;;;;41.07;20.33;;;;;;;2.99;63.01;99579.88;2217149;80;21392;-79
2021/04/09 05:40:44;;;;;;;45.47;20.07;;;;;;;3.14;63.07;99576.81;2217403;80;21263;-81
2021/04/09 05:43:45;;;;;;;35.87;18.80;;;;;;;3.31;62.44;99585.44;2217905;80;21286;-82
2021/04/09 05:46:46;;;;;;;35.47;17.63;;;;;;;3.42;61.28;99579.54;2217466;80;21142;-80
2021/04/09 05:49:51;;;;;;;37.17;17.27;;;;;;;3.54;61.12;99583.19;2217880;80;21284;-81
2021/04/09 05:52:52;;;;;;;32.03;17.03;;;;;;;3.64;60.76;99584.14;2218410;80;21125;-80
2021/04/09 05:55:53;;;;;;;35.47;17.07;;;;;;;3.75;60.06;99570.95;2210228;80;21300;-79
2021/04/09 05:58:54;;;;;;;30.97;17.27;;;;;;;3.86;60.25;99573.19;2210032;80;21264;-80
2021/04/09 06:01:55;;;;;;;27.53;16.37;;;;;;;4.01;59.50;99573.95;2209454;80;21571;-79
2021/04/09 06:04:56;;;;;;;23.23;15.00;;;;;;;4.12;58.68;99576.24;2209686;80;21150;-82
2021/04/09 06:07:58;;;;;;;22.93;14.23;;;;;;;4.24;57.95;99573.36;2209965;81;21264;-78
2021/04/09 06:11:00;;;;;;;28.37;14.27;;;;;;;4.32;57.22;99569.45;2210107;80;21596;-81
2021/04/09 06:14:01;;;;;;;26.87;15.40;;;;;;;4.44;57.51;99567.48;2210139;80;21134;-80
2021/04/09 06:17:02;;;;;;;22.97;13.13;;;;;;;4.61;57.36;99563.51;2210645;80;21393;-80
2021/04/09 06:20:03;;;;;;;24.17;16.27;;;;;;;4.81;54.95;99561.44;2210349;80;21169;-78
2021/04/09 06:23:06;;;;;;;24.17;14.40;;;;;;;4.97;55.97;99567.78;2210510;80;21288;-79
2021/04/09 06:26:07;;;;;;;26.87;13.23;;;;;;;5.13;56.00;99564.18;2210562;80;21161;-81
2021/04/09 06:29:08;;;;;;;45.30;23.63;;;;;;;5.31;54.08;99564.14;2210607;80;21146;-80
2021/04/09 06:32:09;;;;;;;22.83;12.93;;;;;;;5.42;54.54;99561.20;2210024;80;21130;-80
2021/04/09 06:35:10;;;;;;;18.43;12.00;;;;;;;5.48;53.89;99556.70;2210396;80;21193;-79
2021/04/09 06:38:11;;;;;;;24.87;13.13;;;;;;;5.59;54.72;99552.86;2210058;80;21166;-80
2021/04/09 06:41:12;;;;;;;24.23;12.57;;;;;;;5.74;52.88;99548.33;2210043;80;21389;-80
2021/04/09 06:44:13;;;;;;;35.87;12.43;;;;;;;5.83;52.96;99549.53;2210340;81;21180;-80
2021/04/09 06:47:14;;;;;;;19.57;11.13;;;;;;;5.93;52.15;99542.65;2210212;80;21543;-80
2021/04/09 06:50:15;;;;;;;217.80;125.13;;;;;;;6.04;52.88;99547.86;2210343;80;21516;-80
2021/04/09 06:53:16;;;;;;;127.30;67.63;;;;;;;8.90;52.50;99538.64;2210343;80;21280;-81
2021/04/09 06:56:18;;;;;;;72.63;30.80;;;;;;;8.90;52.50;99538.64;2217266;80;21244;-79
2021/04/09 06:59:19;;;;;;;23.30;9.80;;;;;;;10.39;52.02;99536.56;2217763;80;21728;-79
2021/04/09 07:02:23;;;;;;;43.27;10.47;;;;;;;11.21;48.72;99533.60;2216855;80;21460;-80
2021/04/09 07:05:26;;;;;;;27.83;17.00;;;;;;;11.61;47.70;99530.05;2217345;80;21295;-80
2021/04/09 07:08:29;;;;;;;184.43;114.27;;;;;;;12.08;45.02;99516.53;2217241;80;21802;-78
2021/04/09 07:11:30;;;;;;;29.37;16.30;;;;;;;12.37;42.79;99519.64;2217152;80;21142;-78
2021/04/09 07:14:31;;;;;;;23.92;9.95;;;;;;;12.47;42.40;99526.33;2216950;80;21240;-78
2021/04/09 07:17:33;;;;;;;16.73;7.10;;;;;;;12.31;42.22;99526.52;2217210;80;21138;-78
2021/04/09 07:20:36;;;;;;;9.68;6.75;;;;;;;12.05;39.88;99523.02;2217327;80;21129;-79
2021/04/09 07:23:37;;;;;;;14.95;6.42;;;;;;;11.03;40.36;99521.47;2217075;80;21377;-79
2021/04/09 07:26:39;;;;;;;11.20;6.72;;;;;;;10.24;40.36;99511.84;2217321;80;21110;-78
2021/04/09 07:29:40;;;;;;;9.63;5.65;;;;;;;9.58;42.35;99505.83;2217021;80;21263;-79
2021/04/09 07:32:41;;;;;;;27.93;5.42;;;;;;;9.25;41.18;99510.98;2216936;80;21118;-79
2021/04/09 07:35:42;;;;;;;6.80;4.63;;;;;;;9.03;41.07;99513.83;2216770;80;21150;-81
2021/04/09 07:38:43;;;;;;;10.77;4.83;;;;;;;8.84;41.65;99508.52;2217211;80;21244;-80
2021/04/09 07:41:44;;;;;;;9.37;4.77;;;;;;;8.76;41.59;99506.11;2217190;80;21284;-79
2021/04/09 07:44:48;;;;;;;8.70;4.87;;;;;;;8.76;42.70;99506.11;2217038;80;21432;-78
2021/04/09 07:47:49;;;;;;;82.53;49.20;;;;;;;8.88;42.42;99506.47;2218177;80;21185;-81
2021/04/09 07:50:50;;;;;;;253.40;126.37;;;;;;;9.37;43.69;99500.02;2218287;80;21113;-83
2021/04/09 07:53:52;;;;;;;270.20;163.50;;;;;;;10.67;45.82;99484.59;2218172;80;21169;-82
2021/04/09 07:56:53;;;;;;;40.83;20.90;;;;;;;11.36;41.58;99483.39;2218621;80;21141;-82
2021/04/09 07:59:54;;;;;;;163.82;89.50;;;;;;;12.28;41.37;99479.35;2218122;80;21313;-82
2021/04/09 08:02:55;;;;;;;76.92;37.98;;;;;;;13.21;41.80;99471.47;2218470;80;21122;-82
2021/04/09 08:05:56;;;;;;;105.58;69.32;;;;;;;13.50;39.45;99466.53;2218537;80;21134;-82
2021/04/09 08:08:58;;;;;;;38.50;19.30;;;;;;;13.85;40.66;99462.49;2217727;80;21145;-78
2021/04/09 08:11:59;;;;;;;56.40;40.40;;;;;;;14.08;38.79;99462.70;2218766;80;21142;-79
2021/04/09 08:15:00;;;;;;;380.62;302.25;;;;;;;14.50;37.51;99462.58;2218207;80;21404;-82
2021/04/09 08:18:01;;;;;;;39.55;23.12;;;;;;;14.61;38.28;99455.64;2218382;80;21170;-80
2021/04/09 08:21:02;;;;;;;44.38;25.20;;;;;;;14.41;35.62;99456.80;2218293;80;21146;-80
2021/04/09 08:24:03;;;;;;;38.25;6.05;;;;;;;14.60;37.02;99459.14;2217968;80;21173;-83
2021/04/09 08:27:05;;;;;;;591.40;373.82;;;;;;;13.84;31.82;99467.30;2218143;80;21113;-81
2021/04/09 08:30:08;;;;;;;22.50;10.78;;;;;;;13.47;36.55;99470.44;2218315;80;21146;-81
2021/04/09 08:33:13;;;;;;;;;;;;;;;13.26;33.15;99459.30;2220843;80;21113;-81
2021/04/09 08:36:14;;;;;;;213.20;135.32;;;;;;;12.87;33.03;99460.95;2217813;80;20151;-82
2021/04/09 08:39:15;;;;;;;36.98;19.40;;;;;;;12.84;35.97;99453.94;2217459;80;21149;-79
2021/04/09 08:42:16;;;;;;;28.20;15.15;;;;;;;13.45;33.69;99449.88;2218278;80;21169;-80
2021/04/09 08:45:17;;;;;;;204.18;130.22;;;;;;;13.22;34.71;99448.33;2217775;80;21265;-82
2021/04/09 08:48:19;;;;;;;377.62;245.02;;;;;;;12.83;30.96;99444.75;2217830;80;21165;-82
2021/04/09 08:51:20;;;;;;;195.43;123.05;;;;;;;12.79;33.71;99447.77;2218640;80;21121;-82
2021/04/09 08:54:21;;;;;;;150.05;96.63;;;;;;;12.89;34.39;99442.20;2218280;80;21130;-82
2021/04/09 08:57:22;;;;;;;250.13;157.95;;;;;;;13.07;32.43;99422.36;2218304;80;21295;-81
2021/04/09 09:00:24;;;;;;;86.97;46.73;;;;;;;12.91;32.60;99426.07;2217741;80;21138;-78
2021/04/09 09:03:27;;;;;;;22.27;10.28;;;;;;;13.66;35.21;99414.66;2217921;80;21299;-83
2021/04/09 09:06:28;;;;;;;19.60;7.15;;;;;;;13.57;33.08;99411.96;2217671;80;21160;-82
2021/04/09 09:09:29;;;;;;;76.12;38.00;;;;;;;13.69;32.01;99407.70;2217050;80;21130;-80
2021/04/09 09:12:30;;;;;;;47.80;29.52;;;;;;;13.60;32.28;99411.98;2217932;80;21146;-81
2021/04/09 09:15:31;;;;;;;52.75;19.07;;;;;;;13.42;31.24;99399.59;2217968;80;21133;-81
2021/04/09 09:18:32;;;;;;;14.87;8.43;;;;;;;13.63;31.88;99400.20;2218234;80;21459;-82
2021/04/09 09:21:34;;;;;;;14.78;6.72;;;;;;;13.73;32.15;99402.05;2218022;80;21122;-80
2021/04/09 09:24:35;;;;;;;49.42;35.05;;;;;;;13.85;32.24;99394.27;2218196;80;21261;-81
2021/04/09 09:27:36;;;;;;;77.40;47.43;;;;;;;14.00;32.24;99402.28;2218209;80;21420;-82
2021/04/09 09:30:38;;;;;;;161.75;104.38;;;;;;;13.87;30.81;99397.81;2218102;80;21260;-82
2021/04/09 09:33:39;;;;;;;231.82;156.15;;;;;;;13.88;32.15;99396.06;2218714;80;21569;-82
2021/04/09 09:36:40;;;;;;;189.15;106.65;;;;;;;14.14;32.95;99382.68;2218174;80;21423;-82
2021/04/09 09:39:41;;;;;;;154.65;84.10;;;;;;;14.17;31.02;99374.82;2217953;80;21134;-82
2021/04/09 09:42:42;;;;;;;48.25;24.65;;;;;;;13.84;31.59;99379.38;2217719;80;21169;-81
2021/04/09 09:45:43;;;;;;;23.98;11.28;;;;;;;13.84;32.84;99379.38;2218006;80;21157;-79
2021/04/09 09:48:44;;;;;;;14.07;7.22;;;;;;;14.32;33.60;99366.15;2217727;80;21153;-78
2021/04/09 09:51:45;;;;;;;100.97;11.78;;;;;;;14.57;32.47;99360.17;2217761;80;21270;-80
2021/04/09 09:54:46;;;;;;;25.62;7.10;;;;;;;14.56;33.64;99358.41;2216669;80;21138;-82
2021/04/09 09:57:47;;;;;;;10.50;5.75;;;;;;;15.07;32.85;99354.21;2211153;81;21444;-80
2021/04/09 10:00:48;;;;;;;34.43;18.92;;;;;;;14.64;30.17;99350.12;2211245;81;21531;-80
2021/04/09 10:03:50;;;;;;;100.00;60.55;;;;;;;14.46;31.97;99348.74;2211217;80;21170;-81
2021/04/09 10:06:54;;;;;;;233.78;140.62;;;;;;;14.01;31.44;99344.98;2211129;81;21376;-83
2021/04/09 10:09:55;;;;;;;39.00;21.65;;;;;;;14.09;31.33;99335.84;2210974;80;21146;-81
2021/04/09 10:12:56;;;;;;;181.95;123.25;;;;;;;14.00;31.60;99324.84;2211238;80;21158;-81
2021/04/09 10:15:57;;;;;;;239.32;143.28;;;;;;;14.59;33.18;99323.39;2211199;80;21114;-81
2021/04/09 10:18:58;;;;;;;393.48;263.70;;;;;;;15.20;30.61;99308.66;2211355;80;21537;-81
2021/04/09 10:21:59;;;;;;;369.93;242.70;;;;;;;15.22;30.68;99310.84;2212601;80;21291;-80
2021/04/09 10:25:00;;;;;;;301.15;193.95;;;;;;;15.28;31.40;99306.91;2212537;80;21142;-81
2021/04/09 10:28:01;;;;;;;162.55;96.95;;;;;;;15.24;31.52;99305.59;2212145;80;21288;-82
2021/04/09 10:31:03;;;;;;;93.87;51.53;;;;;;;15.21;30.59;99292.00;2211369;81;21129;-81
2021/04/09 10:34:04;;;;;;;121.62;68.45;;;;;;;14.77;29.37;99285.81;2211207;80;21146;-81
2021/04/09 10:37:06;;;;;;;243.80;135.25;;;;;;;14.69;29.86;99283.13;2211647;80;21384;-82
2021/04/09 10:40:07;;;;;;;108.42;52.60;;;;;;;14.36;30.93;99298.33;2211629;80;21284;-81
2021/04/09 10:43:08;;;;;;;83.97;43.08;;;;;;;14.37;32.23;99293.52;2211527;80;21295;-81
2021/04/09 10:46:09;;;;;;;16.30;9.00;;;;;;;14.56;32.36;99287.92;2211225;80;21145;-82
2021/04/09 10:49:10;;;;;;;98.75;60.50;;;;;;;14.68;30.73;99284.01;2211318;81;21138;-82
2021/04/09 10:52:11;;;;;;;414.35;294.23;;;;;;;15.12;32.96;99276.22;2211376;81;21118;-82
2021/04/09 10:55:12;;;;;;;45.67;24.60;;;;;;;15.58;31.77;99278.42;2211459;80;21182;-83
2021/04/09 10:58:13;;;;;;;19.82;9.85;;;;;;;15.53;31.24;99272.25;2211760;81;21126;-82
2021/04/09 11:01:14;;;;;;;21.50;11.20;;;;;;;16.09;28.50;99258.58;2210926;81;21122;-82
2021/04/09 11:04:15;;;;;;;30.17;17.92;;;;;;;15.82;29.65;99258.23;2212026;80;21170;-80
2021/04/09 11:07:16;;;;;;;23.62;10.32;;;;;;;15.86;28.47;99256.90;2211460;80;21160;-81
2021/04/09 11:10:19;;;;;;;16.87;7.97;;;;;;;15.59;29.27;99254.30;2211991;80;21252;-82
2021/04/09 11:13:20;;;;;;;20.62;12.15;;;;;;;15.17;28.33;99256.06;2211677;81;21130;-82
2021/04/09 11:16:21;;;;;;;10.20;6.08;;;;;;;14.96;28.03;99249.05;2210897;80;21142;-82
2021/04/09 11:19:22;;;;;;;11.00;5.22;;;;;;;14.78;28.10;99237.64;2210361;81;21158;-81
2021/04/09 11:22:23;;;;;;;11.10;5.78;;;;;;;14.24;29.41;99249.27;2210332;81;21157;-77
2021/04/09 11:25:24;;;;;;;135.07;14.58;;;;;;;13.76;29.71;99233.27;2210075;81;21273;-79
2021/04/09 11:28:26;;;;;;;6.92;4.95;;;;;;;13.60;30.25;99244.99;2210672;80;21145;-79
2021/04/09 11:31:27;;;;;;;9.25;5.35;;;;;;;13.43;30.23;99240.08;2210679;81;21142;-80
2021/04/09 11:34:28;;;;;;;11.33;5.20;;;;;;;13.36;30.01;99231.72;2210453;81;21149;-80
2021/04/09 11:37:29;;;;;;;13.62;5.30;;;;;;;13.34;30.38;99233.02;2210827;81;21146;-82
2021/04/09 11:40:30;;;;;;;217.40;19.50;;;;;;;13.27;30.51;99229.91;2210619;81;21114;-80
2021/04/09 11:43:31;;;;;;;11.20;5.53;;;;;;;13.24;30.87;99236.45;2210467;80;21309;-79
2021/04/09 11:46:33;;;;;;;5.62;4.45;;;;;;;13.15;31.06;99222.36;2210409;81;21134;-80
2021/04/09 11:49:34;;;;;;;15.63;6.03;;;;;;;13.23;30.13;99212.41;2210336;81;21126;-79
2021/04/09 11:52:35;;;;;;;10.53;6.28;;;;;;;13.33;30.86;99209.42;2210686;81;21559;-79
2021/04/09 11:55:36;;;;;;;14.78;8.10;;;;;;;13.46;30.85;99208.63;2213190;80;21178;-80
2021/04/09 11:58:37;;;;;;;7.62;4.60;;;;;;;13.61;30.88;99199.53;2217746;80;21129;-82
2021/04/09 12:01:38;;;;;;;6.15;4.67;;;;;;;13.69;30.51;99202.19;2217656;80;21427;-79
2021/04/09 12:04:40;;;;;;;5.65;4.78;;;;;;;13.74;30.92;99199.16;2217123;80;21303;-79
2021/04/09 12:07:41;;;;;;;7.40;4.78;;;;;;;13.78;30.31;99199.61;2217367;80;21090;-79
2021/04/09 12:10:43;;;;;;;12.98;5.22;;;;;;;13.50;29.17;99192.04;2217665;80;21130;-78
2021/04/09 12:13:44;;;;;;;8.90;4.67;;;;;;;13.49;29.91;99188.09;2217517;80;21122;-79
2021/04/09 12:16:45;;;;;;;8.40;4.50;;;;;;;13.60;29.48;99189.91;2217241;80;21427;-78
2021/04/09 12:19:46;;;;;;;11.50;5.40;;;;;;;13.64;30.19;99177.69;2217591;80;21307;-80
2021/04/09 12:22:47;;;;;;;10.85;5.30;;;;;;;13.71;30.61;99168.54;2217235;80;21292;-79
2021/04/09 12:25:48;;;;;;;24.95;5.35;;;;;;;13.80;29.90;99162.45;2217043;80;21118;-79
2021/04/09 12:28:49;;;;;;;23.60;4.75;;;;;;;13.70;29.75;99153.67;2216616;80;21255;-79
2021/04/09 12:31:50;;;;;;;10.55;4.28;;;;;;;13.62;29.95;99149.26;2216919;80;21133;-79
2021/04/09 12:34:51;;;;;;;284.90;19.37;;;;;;;13.66;29.79;99149.72;2216925;80;21252;-77
2021/04/09 12:37:52;;;;;;;15.18;5.10;;;;;;;13.66;30.35;99139.22;2216712;80;21416;-79
2021/04/09 12:40:53;;;;;;;9.80;4.55;;;;;;;13.75;29.85;99143.20;2217713;80;21264;-80
2021/04/09 12:43:54;;;;;;;9.33;4.78;;;;;;;13.66;28.87;99135.29;2217634;80;21582;-79
2021/04/09 12:46:55;;;;;;;14.98;5.50;;;;;;;13.56;29.50;99136.12;2217638;80;21133;-79
2021/04/09 12:49:56;;;;;;;10.93;4.78;;;;;;;13.57;30.19;99125.63;2217512;80;21268;-79
2021/04/09 12:52:57;;;;;;;5.53;4.40;;;;;;;13.65;29.95;99125.23;2217372;80;21245;-79
2021/04/09 12:55:58;;;;;;;9.10;5.10;;;;;;;13.70;30.19;99119.56;2217506;80;21280;-79
2021/04/09 12:58:59;;;;;;;12.95;4.83;;;;;;;13.68;30.44;99117.81;2217454;80;21117;-79
2021/04/09 13:02:00;;;;;;;10.35;4.92;;;;;;;13.69;30.07;99112.56;2189360;80;21415;-80
2021/04/09 13:05:01;;;;;;;12.63;4.90;;;;;;;13.66;29.67;99105.12;2217636;80;21141;-80
2021/04/09 13:08:05;;;;;;;26.00;5.37;;;;;;;13.68;29.65;99106.88;2217449;80;21244;-80
2021/04/09 13:11:08;;;;;;;7.35;4.58;;;;;;;13.61;30.22;99098.98;2217161;80;21248;-79
2021/04/09 13:14:09;;;;;;;10.50;5.22;;;;;;;13.48;29.59;99090.62;2217102;80;21091;-79
2021/04/09 13:17:10;;;;;;;10.50;5.30;;;;;;;13.47;30.24;99091.06;2217478;80;21523;-79
2021/04/09 13:20:11;;;;;;;31.57;6.08;;;;;;;13.52;30.42;99085.83;2217391;80;21293;-80
2021/04/09 13:23:12;;;;;;;17.42;5.85;;;;;;;13.64;30.65;99085.87;2217616;80;21312;-79
2021/04/09 13:26:13;;;;;;;14.23;4.65;;;;;;;13.63;30.92;99101.17;2217614;80;21153;-79
2021/04/09 13:29:14;;;;;;;8.18;5.33;;;;;;;13.61;29.59;99090.68;2217542;80;21148;-80
2021/04/09 13:32:15;;;;;;;37.00;7.62;;;;;;;13.58;30.56;99088.48;2217588;80;21263;-80
2021/04/09 13:35:16;;;;;;;60.52;8.83;;;;;;;13.61;30.57;99087.18;2217559;80;21269;-80
2021/04/09 13:38:17;;;;;;;8.63;4.70;;;;;;;13.60;30.26;99094.61;2217655;80;21265;-80
2021/04/09 13:41:18;;;;;;;8.25;5.00;;;;;;;13.56;29.09;99084.97;2217552;80;21542;-80
2021/04/09 13:44:20;;;;;;;14.98;5.60;;;;;;;13.54;30.43;99087.59;2217755;80;21174;-80
2021/04/09 13:47:25;;;;;;;19.65;5.65;;;;;;;13.60;30.96;99082.80;2217227;80;21166;-80
2021/04/09 13:50:29;;;;;;;9.53;4.42;;;;;;;13.62;29.96;99071.88;2217858;80;21193;-81
2021/04/09 13:53:36;;;;;;;6.60;4.70;;;;;;;13.61;29.95;99074.06;2217789;80;21276;-80
2021/04/09 13:56:37;;;;;;;13.32;5.20;;;;;;;13.54;29.68;99069.67;2217401;80;21180;-82
2021/04/09 13:59:38;;;;;;;6.65;4.78;;;;;;;13.57;29.95;99069.68;2217887;80;21118;-81